Time;durP1;ratioP1;P1;durP2;ratioP2;P2;SDS_P1;SDS_P2;PMS_P1;PMS_P2;Temp;Humidity;BMP_temperature;BMP_pressure;BME280_temperature;BME280_humidity;BME280_pressure;Samples;Min_cycle;Max_cycle;Signal;HPM_P1;HPM_P2
2023/04/17 00:01:35;;;;;;;26.85;24.40;;;;;;;13.92;62.86;100552.16;5014196;28;98458;-86
2023/04/17 00:04:01;;;;;;;28.67;26.10;;;;;;;13.84;62.98;100546.34;5013533;28;101113;-85
2023/04/17 00:06:26;;;;;;;28.00;25.23;;;;;;;13.98;63.12;100551.88;5020233;28;96921;-85
2023/04/17 00:08:52;;;;;;;27.45;25.05;;;;;;;13.84;63.25;100541.09;5022532;27;97207;-86
2023/04/17 00:11:18;;;;;;;27.70;25.10;;;;;;;13.81;63.77;100542.91;4997614;28;100331;-86
2023/04/17 00:13:43;;;;;;;28.80;26.15;;;;;;;13.93;63.22;100548.59;5012829;28;100234;-85
2023/04/17 00:16:11;;;;;;;28.85;25.98;;;;;;;13.94;63.11;100551.19;5031488;27;97418;-85
2023/04/17 00:18:37;;;;;;;28.50;25.80;;;;;;;13.97;62.86;100547.53;5014227;28;96891;-86
2023/04/17 00:21:02;;;;;;;27.23;24.45;;;;;;;13.88;62.91;100547.97;5008527;28;101426;-86
2023/04/17 00:23:28;;;;;;;28.45;25.80;;;;;;;13.90;63.29;100548.72;4989539;28;100301;-85
2023/04/17 00:25:53;;;;;;;28.00;25.27;;;;;;;13.69;63.67;100546.09;5014201;28;97068;-85
2023/04/17 00:28:19;;;;;;;28.00;25.20;;;;;;;13.64;63.45;100541.94;5015841;28;97298;-86
2023/04/17 00:30:45;;;;;;;28.02;25.35;;;;;;;13.57;63.46;100513.19;5013344;28;101009;-86
2023/04/17 00:33:11;;;;;;;27.90;25.20;;;;;;;13.84;63.03;100535.81;4997266;28;101762;-86
2023/04/17 00:35:36;;;;;;;31.23;28.13;;;;;;;13.67;63.32;100516.31;5009774;28;96787;-86
2023/04/17 00:38:02;;;;;;;32.42;29.27;;;;;;;13.79;63.08;100515.78;5012296;28;97033;-85
2023/04/17 00:40:27;;;;;;;31.55;28.38;;;;;;;13.72;63.09;100509.03;5014827;28;101299;-86
2023/04/17 00:42:59;;;;;;;32.08;29.05;;;;;;;13.85;63.04;100538.38;4998444;28;101656;-86
2023/04/17 00:45:24;;;;;;;30.45;27.63;;;;;;;13.74;63.38;100554.69;5013604;28;97141;-84
2023/04/17 00:47:50;;;;;;;28.95;26.25;;;;;;;13.60;63.46;100514.84;5013780;28;97396;-85
2023/04/17 00:50:16;;;;;;;29.35;26.55;;;;;;;13.84;63.06;100533.16;5012881;28;100169;-86
2023/04/17 00:52:43;;;;;;;28.92;26.20;;;;;;;13.77;62.93;100529.94;5022396;28;102033;-85
2023/04/17 00:55:09;;;;;;;29.75;26.95;;;;;;;13.48;63.69;100497.78;5028971;27;96910;-85
2023/04/17 00:57:34;;;;;;;29.65;26.85;;;;;;;13.70;63.14;100542.56;5031260;28;97234;-85
2023/04/17 01:00:00;;;;;;;29.25;26.20;;;;;;;13.49;64.11;100543.47;5010787;28;99150;-86
2023/04/17 01:02:26;;;;;;;27.70;25.10;;;;;;;13.38;63.98;100541.31;4992504;28;100303;-85
2023/04/17 01:04:51;;;;;;;29.00;26.25;;;;;;;13.56;63.63;100539.66;4985709;28;96957;-85
2023/04/17 01:07:17;;;;;;;29.55;26.83;;;;;;;13.64;63.70;100555.97;5020437;28;97045;-86
2023/04/17 01:09:43;;;;;;;30.33;27.70;;;;;;;13.62;63.37;100560.50;4996468;28;101624;-86
2023/04/17 01:12:16;;;;;;;30.27;27.35;;;;;;;13.55;63.95;100548.47;5013807;28;97951;-85
2023/04/17 01:14:42;;;;;;;29.92;27.05;;;;;;;13.36;63.33;100522.91;5012971;28;97615;-86
2023/04/17 01:17:09;;;;;;;30.27;27.45;;;;;;;13.49;63.61;100559.28;5013755;28;97083;-85
2023/04/17 01:19:35;;;;;;;31.27;28.20;;;;;;;13.33;64.22;100536.22;4992731;28;101729;-86
2023/04/17 01:22:00;;;;;;;29.48;26.80;;;;;;;13.46;63.94;100564.69;5029114;27;101736;-86
2023/04/17 01:24:26;;;;;;;31.20;27.98;;;;;;;13.31;64.49;100547.75;5012166;28;96992;-85
2023/04/17 01:26:52;;;;;;;31.65;28.63;;;;;;;13.46;64.05;100543.59;4996881;28;97127;-85
2023/04/17 01:29:21;;;;;;;31.27;28.17;;;;;;;13.47;64.09;100551.47;5001113;28;101048;-85
2023/04/17 01:31:47;;;;;;;30.10;27.25;;;;;;;13.48;64.22;100558.44;5012824;28;101752;-86
2023/04/17 01:34:13;;;;;;;31.80;28.60;;;;;;;13.32;64.94;100546.81;5014175;28;97317;-86
2023/04/17 01:36:38;;;;;;;32.05;28.75;;;;;;;13.33;64.97;100548.53;4990743;28;96876;-85
2023/04/17 01:39:04;;;;;;;32.13;29.10;;;;;;;13.38;64.26;100541.31;5008801;28;101131;-85
2023/04/17 01:41:30;;;;;;;31.10;27.77;;;;;;;13.36;64.95;100562.44;5007435;28;97917;-84
2023/04/17 01:43:55;;;;;;;29.95;27.08;;;;;;;13.21;65.45;100560.41;5022822;28;97290;-85
2023/04/17 01:46:21;;;;;;;30.75;27.75;;;;;;;12.92;65.43;100522.06;5024557;28;98033;-86
2023/04/17 01:48:47;;;;;;;36.53;32.67;;;;;;;13.13;65.81;100566.00;5012518;28;100419;-86
2023/04/17 01:51:13;;;;;;;38.83;33.50;;;;;;;13.17;65.62;100573.78;5012425;27;98176;-86
2023/04/17 01:53:38;;;;;;;41.25;33.63;;;;;;;13.26;65.22;100571.63;5018252;28;97385;-85
2023/04/17 01:56:04;;;;;;;37.25;32.85;;;;;;;13.28;65.09;100580.34;5011045;28;97171;-86
2023/04/17 01:58:30;;;;;;;37.45;32.55;;;;;;;13.37;64.71;100571.22;4995820;28;100381;-85
2023/04/17 02:00:56;;;;;;;41.00;33.00;;;;;;;13.38;64.54;100577.34;4995998;28;101390;-86
2023/04/17 02:03:23;;;;;;;40.22;32.50;;;;;;;13.42;64.40;100579.78;5009218;28;97270;-86
2023/04/17 02:05:49;;;;;;;42.40;34.80;;;;;;;13.38;64.52;100574.69;5025772;27;97170;-86
2023/04/17 02:08:14;;;;;;;42.10;34.83;;;;;;;13.33;64.68;100567.84;5015623;28;101347;-86
2023/04/17 02:10:41;;;;;;;42.63;35.00;;;;;;;13.22;64.81;100559.50;5016241;28;101215;-86
2023/04/17 02:13:07;;;;;;;41.70;32.88;;;;;;;13.24;64.77;100575.25;5014920;28;96848;-86
2023/04/17 02:15:33;;;;;;;42.63;34.45;;;;;;;13.22;64.74;100572.66;5024399;27;97124;-86
2023/04/17 02:17:58;;;;;;;47.80;34.80;;;;;;;13.36;64.56;100588.81;5039680;27;101305;-85
2023/04/17 02:20:24;;;;;;;38.05;31.27;;;;;;;13.36;64.51;100582.69;5056543;27;97934;-86
2023/04/17 02:22:50;;;;;;;40.22;32.83;;;;;;;13.14;64.88;100580.88;5031505;28;97346;-85
2023/04/17 02:25:15;;;;;;;54.40;35.88;;;;;;;13.05;65.51;100586.53;5005623;28;97018;-85
2023/04/17 02:27:41;;;;;;;55.45;37.75;;;;;;;13.16;64.77;100588.75;5014900;28;101673;-85
2023/04/17 02:30:07;;;;;;;49.17;32.20;;;;;;;12.87;64.98;100545.09;4998370;28;101016;-85
2023/04/17 02:32:33;;;;;;;50.53;33.65;;;;;;;13.01;64.92;100584.09;5021645;28;97008;-85
2023/04/17 02:34:58;;;;;;;43.80;31.20;;;;;;;13.08;64.61;100580.28;5033052;28;97180;-85
2023/04/17 02:37:24;;;;;;;43.90;30.60;;;;;;;13.09;64.51;100582.88;5015185;28;101532;-86
2023/04/17 02:39:53;;;;;;;39.30;29.38;;;;;;;13.18;64.59;100586.03;5030436;27;100373;-85
2023/04/17 02:42:18;;;;;;;38.70;28.13;;;;;;;13.10;64.55;100587.19;5032293;28;97678;-85
2023/04/17 02:44:45;;;;;;;34.80;27.33;;;;;;;12.97;65.01;100580.69;4998941;28;97358;-86
2023/04/17 02:47:11;;;;;;;31.88;27.42;;;;;;;13.01;64.91;100581.44;5014493;28;101616;-86
2023/04/17 02:49:37;;;;;;;29.20;24.42;;;;;;;12.84;64.90;100568.94;5018995;28;97948;-85
2023/04/17 02:52:03;;;;;;;31.33;25.02;;;;;;;12.86;65.25;100585.56;5032294;28;96707;-85
2023/04/17 02:54:28;;;;;;;31.73;26.67;;;;;;;12.87;64.99;100588.13;5021351;28;97115;-86
2023/04/17 02:56:57;;;;;;;30.38;26.27;;;;;;;12.69;65.20;100567.78;5015209;28;98090;-85
2023/04/17 02:59:26;;;;;;;28.90;24.08;;;;;;;12.75;65.61;100588.59;5012541;28;101392;-85
2023/04/17 03:01:52;;;;;;;28.27;25.48;;;;;;;12.64;65.65;100574.97;4998958;28;96868;-85
2023/04/17 03:04:18;;;;;;;28.52;25.50;;;;;;;12.70;65.69;100582.63;5029332;27;97037;-85
2023/04/17 03:06:43;;;;;;;29.10;24.58;;;;;;;12.69;65.77;100573.88;5014205;28;97507;-86
2023/04/17 03:09:13;;;;;;;27.63;24.63;;;;;;;12.89;64.90;100596.81;5023283;28;98312;-85
2023/04/17 03:11:39;;;;;;;29.27;26.13;;;;;;;12.77;65.41;100591.16;4994883;28;97313;-85
2023/04/17 03:14:04;;;;;;;28.17;24.65;;;;;;;13.04;64.47;100594.50;5027799;28;97191;-85
2023/04/17 03:16:30;;;;;;;28.15;25.25;;;;;;;12.89;64.67;100594.19;5002435;28;101229;-85
2023/04/17 03:18:58;;;;;;;27.60;24.95;;;;;;;12.83;64.88;100561.97;5011849;28;101338;-85
2023/04/17 03:21:25;;;;;;;26.65;24.15;;;;;;;12.85;64.49;100592.56;5015390;28;97007;-86
2023/04/17 03:23:51;;;;;;;28.20;25.48;;;;;;;12.95;64.55;100605.41;4998273;28;96757;-86
2023/04/17 03:26:20;;;;;;;26.83;23.88;;;;;;;12.97;64.80;100607.03;5015653;28;101710;-86
2023/04/17 03:28:46;;;;;;;28.77;25.75;;;;;;;12.90;65.05;100597.69;5010139;28;101596;-86
2023/04/17 03:31:12;;;;;;;29.33;26.08;;;;;;;12.85;65.54;100603.13;5014453;28;96882;-86
2023/04/17 03:33:38;;;;;;;29.17;26.30;;;;;;;12.76;65.24;100606.09;5013469;28;96885;-85
2023/04/17 03:36:04;;;;;;;30.83;27.67;;;;;;;12.78;65.38;100614.81;5047619;28;100821;-86
2023/04/17 03:38:31;;;;;;;29.80;26.67;;;;;;;12.80;65.26;100614.75;5047954;27;100782;-86
2023/04/17 03:40:57;;;;;;;32.85;26.42;;;;;;;12.68;65.48;100608.19;5030736;28;97281;-86
2023/04/17 03:43:24;;;;;;;31.55;28.30;;;;;;;12.78;65.30;100609.56;5006873;28;97286;-85
2023/04/17 03:45:50;;;;;;;30.30;27.15;;;;;;;12.77;65.60;100610.47;5013498;28;99683;-85
2023/04/17 03:48:16;;;;;;;30.70;27.63;;;;;;;12.86;65.13;100631.19;5015519;28;100967;-85
2023/04/17 03:50:44;;;;;;;30.92;27.80;;;;;;;12.67;65.68;100612.59;4999616;28;97100;-85
2023/04/17 03:53:10;;;;;;;29.58;26.48;;;;;;;12.56;65.66;100600.75;5021987;27;97157;-86
2023/04/17 03:55:39;;;;;;;29.40;26.60;;;;;;;12.86;65.14;100632.97;5011538;28;99408;-86
2023/04/17 03:58:06;;;;;;;29.60;26.60;;;;;;;12.86;64.92;100622.44;5014139;28;99929;-86
2023/04/17 04:00:32;;;;;;;30.48;27.33;;;;;;;12.80;65.28;100626.16;5013604;28;96912;-86
2023/04/17 04:03:04;;;;;;;30.67;27.88;;;;;;;12.68;65.32;100616.06;5013785;28;97568;-87
2023/04/17 04:05:37;;;;;;;29.48;26.42;;;;;;;12.88;64.92;100636.38;5026042;27;99895;-85
2023/04/17 04:08:04;;;;;;;29.92;26.70;;;;;;;12.95;64.53;100629.13;5004577;28;99924;-85
2023/04/17 04:10:37;;;;;;;30.85;27.27;;;;;;;13.01;64.81;100631.53;4999913;28;96940;-86
2023/04/17 04:13:04;;;;;;;29.90;26.70;;;;;;;12.95;64.43;100631.75;5014938;28;97386;-86
2023/04/17 04:15:29;;;;;;;32.17;28.77;;;;;;;12.99;64.14;100636.84;4997697;28;99818;-87
2023/04/17 04:17:59;;;;;;;35.63;31.75;;;;;;;13.00;63.60;100630.66;4998552;28;102205;-85
2023/04/17 04:20:24;;;;;;;35.47;31.88;;;;;;;12.94;63.38;100630.03;5013920;28;97127;-86
2023/04/17 04:22:58;;;;;;;34.67;30.80;;;;;;;12.94;63.17;100625.59;5029983;28;97042;-86
2023/04/17 04:25:25;;;;;;;33.65;30.20;;;;;;;12.93;63.47;100638.88;5037119;27;100769;-85
2023/04/17 04:28:05;;;;;;;33.63;30.33;;;;;;;12.85;63.75;100626.81;5001148;28;100555;-86
2023/04/17 04:30:34;;;;;;;31.65;27.45;;;;;;;12.94;63.82;100637.94;5013816;28;96928;-85
2023/04/17 04:33:07;;;;;;;33.20;27.85;;;;;;;12.93;63.96;100637.06;4999038;28;97339;-86
2023/04/17 04:35:33;;;;;;;30.90;27.92;;;;;;;13.00;63.87;100645.59;5008511;28;101813;-86
2023/04/17 04:38:01;;;;;;;29.20;26.20;;;;;;;13.04;63.87;100647.22;5023940;27;101020;-85
2023/04/17 04:40:34;;;;;;;28.73;25.67;;;;;;;13.08;64.42;100646.16;5021697;28;97461;-87
2023/04/17 04:43:00;;;;;;;28.50;25.65;;;;;;;12.95;64.31;100637.88;5010935;28;96888;-87
2023/04/17 04:45:34;;;;;;;27.88;25.23;;;;;;;13.12;63.72;100647.78;5010370;28;101862;-86
2023/04/17 04:48:00;;;;;;;27.90;25.20;;;;;;;12.97;63.84;100622.84;5028609;28;101285;-86
2023/04/17 04:50:26;;;;;;;27.90;25.17;;;;;;;12.95;64.70;100650.22;5013510;28;96700;-86
2023/04/17 04:52:52;;;;;;;28.38;25.42;;;;;;;13.06;64.25;100650.63;4994450;28;96946;-84
2023/04/17 04:55:38;;;;;;;31.17;27.20;;;;;;;12.99;63.89;100646.53;5026157;28;99748;-84
2023/04/17 04:58:03;;;;;;;32.40;28.38;;;;;;;13.02;63.80;100649.03;5027855;28;101230;-88
2023/04/17 05:00:30;;;;;;;33.75;30.63;;;;;;;12.99;62.79;100638.63;5010452;28;97385;-86
2023/04/17 05:02:57;;;;;;;33.10;29.95;;;;;;;13.12;61.93;100661.81;5026255;28;96892;-87
2023/04/17 05:05:24;;;;;;;34.47;31.08;;;;;;;13.05;62.15;100646.28;5005658;28;100250;-84
2023/04/17 05:07:54;;;;;;;32.75;29.40;;;;;;;13.18;61.77;100657.19;4994392;28;101034;-86
2023/04/17 05:10:23;;;;;;;32.45;29.20;;;;;;;13.14;61.52;100657.31;5021397;27;97171;-87
2023/04/17 05:12:53;;;;;;;33.17;29.98;;;;;;;13.08;61.49;100641.75;5003934;28;96982;-87
2023/04/17 05:15:20;;;;;;;33.80;30.67;;;;;;;13.27;61.21;100664.78;5011173;28;101868;-87
2023/04/17 05:17:46;;;;;;;34.20;30.65;;;;;;;13.34;61.40;100663.63;5004398;28;101317;-85
2023/04/17 05:20:13;;;;;;;34.30;30.67;;;;;;;13.42;61.56;100660.69;4993887;28;97288;-84
2023/04/17 05:22:47;;;;;;;34.00;30.70;;;;;;;13.47;61.01;100662.22;5011873;28;97443;-84
2023/04/17 05:25:15;;;;;;;32.25;29.17;;;;;;;13.53;60.94;100661.97;4990217;28;101537;-84
2023/04/17 05:27:41;;;;;;;32.33;28.98;;;;;;;13.67;60.26;100665.78;4993195;28;101837;-85
2023/04/17 05:30:08;;;;;;;34.13;30.83;;;;;;;13.59;60.07;100655.59;5026918;28;97260;-85
2023/04/17 05:32:34;;;;;;;34.55;30.88;;;;;;;13.76;60.47;100670.72;5006515;28;97461;-94
2023/04/17 05:35:09;;;;;;;36.17;32.08;;;;;;;13.84;60.47;100679.13;5006349;28;101729;-82
2023/04/17 05:37:36;;;;;;;34.15;30.77;;;;;;;13.94;59.64;100684.91;5018256;28;98935;-83
2023/04/17 05:40:05;;;;;;;33.95;30.67;;;;;;;14.03;59.63;100680.09;5014932;28;96869;-83
2023/04/17 05:42:33;;;;;;;39.00;31.60;;;;;;;13.91;60.04;100648.09;5026114;28;96913;-84
2023/04/17 05:44:59;;;;;;;35.70;32.35;;;;;;;13.98;60.18;100649.53;4998696;28;100769;-83
2023/04/17 05:47:24;;;;;;;34.00;30.73;;;;;;;14.12;59.88;100649.81;5012455;28;97319;-84
2023/04/17 05:49:56;;;;;;;34.17;30.80;;;;;;;14.46;60.15;100685.31;5024546;27;96865;-83
2023/04/17 05:52:23;;;;;;;35.47;32.00;;;;;;;14.53;59.29;100684.13;5000361;28;97597;-84
2023/04/17 05:54:49;;;;;;;35.45;31.77;;;;;;;14.70;59.07;100684.22;5014596;28;101532;-83
2023/04/17 05:57:16;;;;;;;32.53;29.42;;;;;;;14.82;58.74;100674.03;5029627;28;101422;-83
2023/04/17 05:59:42;;;;;;;33.97;30.75;;;;;;;14.97;57.62;100677.75;5012594;28;97189;-84
2023/04/17 06:02:08;;;;;;;32.17;28.75;;;;;;;14.93;56.78;100677.88;5015772;28;96806;-84
2023/04/17 06:04:34;;;;;;;32.92;29.48;;;;;;;14.91;56.41;100676.22;4995580;28;101451;-84
2023/04/17 06:07:01;;;;;;;30.85;27.63;;;;;;;15.10;56.16;100694.75;5013889;28;101565;-83
2023/04/17 06:09:27;;;;;;;31.67;27.90;;;;;;;15.26;55.85;100689.59;4998554;28;97237;-83
2023/04/17 06:11:53;;;;;;;31.85;29.05;;;;;;;15.40;55.05;100689.78;4997828;28;98227;-84
2023/04/17 06:14:18;;;;;;;31.75;28.67;;;;;;;15.51;54.44;100692.78;5014715;28;100991;-84
2023/04/17 06:16:46;;;;;;;31.05;27.83;;;;;;;15.56;54.38;100689.88;5011107;28;101127;-84
2023/04/17 06:19:15;;;;;;;30.50;27.38;;;;;;;15.44;54.03;100650.81;5015311;28;97002;-84
2023/04/17 06:21:40;;;;;;;30.83;27.65;;;;;;;15.77;53.95;100701.25;5014493;28;97019;-84
2023/04/17 06:24:06;;;;;;;30.05;27.23;;;;;;;15.87;53.55;100696.34;5013075;28;100994;-84
2023/04/17 06:26:32;;;;;;;29.70;26.90;;;;;;;15.95;53.18;100676.50;5006586;28;101769;-83
2023/04/17 06:28:57;;;;;;;29.95;27.38;;;;;;;16.29;52.43;100699.47;5014596;28;97227;-84
2023/04/17 06:31:24;;;;;;;29.90;27.15;;;;;;;16.40;51.57;100695.38;5011317;28;97541;-84
2023/04/17 06:33:50;;;;;;;29.38;26.40;;;;;;;16.52;51.97;100702.69;5011826;28;101472;-85
2023/04/17 06:36:18;;;;;;;29.52;26.83;;;;;;;16.44;51.76;100658.06;4998578;28;99489;-86
2023/04/17 06:38:47;;;;;;;27.65;25.23;;;;;;;16.72;51.14;100672.47;4999050;28;96991;-84
2023/04/17 06:41:15;;;;;;;28.27;25.98;;;;;;;17.10;49.86;100688.13;5043494;27;97126;-85
2023/04/17 06:43:40;;;;;;;29.25;26.55;;;;;;;17.23;50.22;100690.97;4997950;28;101883;-84
2023/04/17 06:46:13;;;;;;;28.20;25.48;;;;;;;17.39;49.83;100694.44;5026841;28;101490;-85
2023/04/17 06:48:38;;;;;;;27.83;25.58;;;;;;;17.49;50.32;100700.97;4988401;28;96875;-85
2023/04/17 06:51:04;;;;;;;27.70;24.92;;;;;;;17.31;50.04;100680.78;5014466;28;96996;-86
2023/04/17 06:53:29;;;;;;;25.85;23.70;;;;;;;17.46;49.92;100698.50;5012006;28;98430;-84
2023/04/17 06:55:55;;;;;;;25.00;22.83;;;;;;;17.36;50.00;100642.41;5045979;27;98330;-89
2023/04/17 06:58:20;;;;;;;26.85;24.38;;;;;;;17.84;48.70;100680.38;5014922;28;96750;-90
2023/04/17 07:00:46;;;;;;;28.17;25.67;;;;;;;18.40;48.20;100693.88;5022447;28;96921;-91
2023/04/17 07:03:13;;;;;;;26.83;24.30;;;;;;;18.78;47.29;100701.31;5046693;27;100510;-90
2023/04/17 07:05:39;;;;;;;24.95;22.70;;;;;;;19.03;47.36;100699.81;5021403;28;101053;-87
2023/04/17 07:08:04;;;;;;;27.65;24.73;;;;;;;19.08;46.02;100661.31;5012534;28;97392;-89
2023/04/17 07:10:30;;;;;;;25.27;23.00;;;;;;;19.54;45.33;100708.03;5009101;28;96866;-92
2023/04/17 07:12:56;;;;;;;27.33;24.48;;;;;;;19.54;45.17;100682.25;5028234;28;101961;-82
2023/04/17 07:15:21;;;;;;;26.45;23.92;;;;;;;19.63;45.24;100662.16;5002585;28;100989;-89
2023/04/17 07:17:47;;;;;;;24.95;22.98;;;;;;;20.03;44.46;100697.66;5032632;28;97177;-93
2023/04/17 07:20:12;;;;;;;24.95;22.92;;;;;;;19.57;44.17;100674.06;5016659;28;97176;-94
2023/04/17 07:22:38;;;;;;;28.15;25.80;;;;;;;19.14;44.66;100644.94;5037794;27;99125;-93
2023/04/17 07:25:05;;;;;;;26.38;24.10;;;;;;;19.09;44.83;100660.34;5016054;28;100862;-94
2023/04/17 07:27:31;;;;;;;23.60;21.80;;;;;;;19.70;44.30;100719.44;5011811;28;97334;-94
2023/04/17 07:29:56;;;;;;;23.17;21.42;;;;;;;19.81;43.62;100697.38;5042622;27;97194;-81
2023/04/17 07:32:24;;;;;;;22.75;21.05;;;;;;;20.15;43.88;100713.78;4999715;28;101604;-81
2023/04/17 07:34:50;;;;;;;23.55;21.73;;;;;;;20.58;42.90;100717.91;5014638;28;100691;-88
2023/04/17 07:37:16;;;;;;;22.42;20.75;;;;;;;20.76;42.83;100721.09;5014403;28;96714;-82
2023/04/17 07:39:41;;;;;;;23.85;21.85;;;;;;;21.11;42.49;100722.22;5014105;28;96901;-83
2023/04/17 07:42:07;;;;;;;26.13;23.42;;;;;;;21.44;41.71;100711.81;5013697;28;101446;-85
2023/04/17 07:44:37;;;;;;;24.92;22.55;;;;;;;21.77;41.65;100699.59;5027078;28;97484;-82
2023/04/17 07:47:03;;;;;;;22.10;20.50;;;;;;;22.28;39.75;100719.81;5002114;28;96986;-84
2023/04/17 07:49:29;;;;;;;23.48;21.35;;;;;;;22.40;38.83;100696.63;5013410;28;97361;-86
2023/04/17 07:51:54;;;;;;;22.50;20.80;;;;;;;22.66;38.76;100724.00;5000972;28;98025;-84
2023/04/17 07:54:20;;;;;;;23.67;21.92;;;;;;;22.73;38.87;100711.88;5013644;28;102125;-84
2023/04/17 07:56:45;;;;;;;21.83;20.23;;;;;;;23.14;38.72;100713.94;5011280;28;96868;-83
2023/04/17 07:59:17;;;;;;;22.77;21.08;;;;;;;23.53;37.51;100713.50;5023088;27;97037;-83
2023/04/17 08:01:43;;;;;;;23.52;21.48;;;;;;;23.43;37.64;100718.78;5011700;28;97585;-83
2023/04/17 08:04:08;;;;;;;23.08;20.98;;;;;;;23.76;36.44;100717.00;5010355;28;101378;-83
2023/04/17 08:06:34;;;;;;;22.63;21.02;;;;;;;23.97;35.89;100714.34;5011734;28;97230;-84
2023/04/17 08:09:01;;;;;;;23.63;21.67;;;;;;;24.02;35.88;100715.66;5011970;28;97365;-83
2023/04/17 08:11:27;;;;;;;22.88;21.10;;;;;;;23.94;35.88;100718.16;4993011;28;101566;-84
2023/04/17 08:13:54;;;;;;;22.95;21.25;;;;;;;24.06;35.88;100721.63;5046335;27;97625;-84
2023/04/17 08:16:20;;;;;;;23.88;21.80;;;;;;;24.21;36.31;100714.97;5042794;27;97592;-83
2023/04/17 08:18:45;;;;;;;22.17;20.33;;;;;;;24.68;35.52;100707.34;5022659;27;97135;-83
2023/04/17 08:21:11;;;;;;;23.40;21.05;;;;;;;24.80;35.05;100733.13;4993799;28;101591;-83
2023/04/17 08:23:36;;;;;;;24.67;22.88;;;;;;;25.11;34.65;100725.06;5026066;27;101110;-82
2023/04/17 08:26:02;;;;;;;24.35;22.33;;;;;;;25.03;34.35;100693.50;5011975;28;97465;-83
2023/04/17 08:28:29;;;;;;;22.88;21.17;;;;;;;25.41;34.22;100709.91;5018260;28;96981;-83
2023/04/17 08:30:55;;;;;;;23.23;21.50;;;;;;;25.67;34.07;100719.13;5022524;28;97901;-84
2023/04/17 08:33:21;;;;;;;23.23;21.52;;;;;;;25.71;33.85;100708.94;5012039;28;100261;-84
2023/04/17 08:35:47;;;;;;;22.77;21.08;;;;;;;25.83;33.69;100712.34;4989289;27;97120;-85
2023/04/17 08:38:32;;;;;;;24.67;22.55;;;;;;;26.28;32.94;100719.84;5007940;28;97441;-85
2023/04/17 08:41:18;;;;;;;24.73;22.63;;;;;;;26.68;32.04;100722.31;5013197;28;100138;-86
2023/04/17 08:43:47;;;;;;;24.55;22.25;;;;;;;26.72;32.68;100728.25;5006634;28;100003;-88
2023/04/17 08:46:14;;;;;;;25.58;23.35;;;;;;;26.37;32.97;100724.34;5021312;27;96822;-86
2023/04/17 08:48:39;;;;;;;24.10;22.20;;;;;;;26.31;32.50;100720.41;5026746;27;96833;-86
2023/04/17 08:51:05;;;;;;;23.85;22.00;;;;;;;26.43;32.31;100718.38;5019004;27;98367;-84
2023/04/17 08:53:30;;;;;;;24.40;22.60;;;;;;;26.89;31.45;100737.41;5014239;27;101533;-86
2023/04/17 08:55:58;;;;;;;24.40;22.60;;;;;;;26.85;32.06;100718.03;5059445;27;97255;-87
2023/04/17 08:58:25;;;;;;;24.80;22.95;;;;;;;27.21;32.18;100740.56;5020350;28;97314;-86
2023/04/17 09:00:50;;;;;;;24.85;22.77;;;;;;;27.24;31.27;100721.38;4994361;28;101573;-86
2023/04/17 09:03:16;;;;;;;25.33;23.42;;;;;;;26.24;32.10;100740.81;4993137;28;100297;-86
2023/04/17 09:05:44;;;;;;;23.40;21.45;;;;;;;25.26;33.21;100747.91;5013850;27;96994;-87
2023/04/17 09:08:22;;;;;;;23.63;21.85;;;;;;;25.44;32.49;100717.69;5002448;28;97662;-86
2023/04/17 09:10:49;;;;;;;24.42;22.52;;;;;;;25.72;32.63;100703.44;5021014;27;97962;-87
2023/04/17 09:13:19;;;;;;;25.02;23.23;;;;;;;26.01;32.71;100734.88;5011492;28;101473;-85
2023/04/17 09:15:45;;;;;;;;;;;;;;;25.36;33.33;100749.75;5033449;27;97210;-86
2023/04/17 09:18:25;;;;;;;25.17;23.20;;;;;;;25.70;33.35;100739.50;5038517;27;98152;-86
2023/04/17 09:20:50;;;;;;;25.00;23.10;;;;;;;25.59;32.83;100745.84;5012202;28;101548;-87
2023/04/17 09:23:16;;;;;;;25.52;23.42;;;;;;;25.06;33.33;100748.78;5011083;28;100291;-87
2023/04/17 09:25:42;;;;;;;26.98;24.58;;;;;;;23.96;34.98;100748.34;5007695;28;96952;-88
2023/04/17 09:28:12;;;;;;;26.60;24.38;;;;;;;23.10;36.49;100741.97;5018214;28;96803;-87
2023/04/17 09:30:39;;;;;;;27.00;24.67;;;;;;;22.72;37.55;100764.53;5001976;27;101456;-88
2023/04/17 09:33:08;;;;;;;27.63;25.20;;;;;;;22.44;38.32;100757.78;5034114;27;101775;-89
2023/04/17 09:35:37;;;;;;;28.63;26.05;;;;;;;22.24;39.08;100762.00;5032757;27;97223;-94
2023/04/17 09:38:03;;;;;;;29.08;26.63;;;;;;;22.12;39.39;100762.88;5032559;27;96819;-87
2023/04/17 09:40:36;;;;;;;28.00;25.63;;;;;;;21.93;38.92;100761.59;5023881;28;101599;-89
2023/04/17 09:43:03;;;;;;;27.48;25.08;;;;;;;21.64;39.49;100761.09;5012447;28;101631;-87
2023/04/17 09:45:40;;;;;;;27.83;25.40;;;;;;;21.61;39.94;100769.34;5007155;28;96719;-85
2023/04/17 09:48:11;;;;;;;27.80;25.45;;;;;;;22.22;38.78;100733.66;5006436;28;96879;-85
2023/04/17 09:50:37;;;;;;;28.83;26.20;;;;;;;22.93;37.39;100755.81;5015433;27;101876;-84
2023/04/17 09:53:04;;;;;;;29.10;26.60;;;;;;;23.07;37.12;100744.00;5018886;27;100462;-86
2023/04/17 09:55:30;;;;;;;29.38;26.77;;;;;;;22.94;37.46;100758.34;5035230;27;97413;-85
2023/04/17 09:57:57;;;;;;;28.88;26.48;;;;;;;22.58;38.44;100765.59;5033977;27;96859;-85
2023/04/17 10:00:26;;;;;;;29.65;26.88;;;;;;;22.32;38.95;100764.09;5016271;28;100499;-85
2023/04/17 10:02:52;;;;;;;27.27;24.88;;;;;;;21.97;38.93;100742.69;5015109;27;101380;-84
2023/04/17 10:05:24;;;;;;;26.35;24.05;;;;;;;22.06;39.22;100766.88;4995726;28;97912;-91
2023/04/17 10:07:49;;;;;;;27.50;24.98;;;;;;;21.79;39.15;100755.59;5017278;28;97438;-85
2023/04/17 10:10:27;;;;;;;28.65;26.15;;;;;;;21.46;39.80;100749.91;5014271;28;100194;-85
2023/04/17 10:12:56;;;;;;;28.40;26.00;;;;;;;21.14;40.68;100770.03;5014101;28;100083;-85
2023/04/17 10:15:23;;;;;;;28.98;26.48;;;;;;;20.85;41.05;100754.28;5034285;28;96794;-83
2023/04/17 10:17:49;;;;;;;29.88;26.75;;;;;;;20.80;40.63;100753.75;5025253;28;96772;-82
2023/04/17 10:20:21;;;;;;;28.20;25.58;;;;;;;20.51;41.27;100761.94;5056422;27;98555;-86
2023/04/17 10:22:54;;;;;;;29.08;26.30;;;;;;;20.34;41.72;100755.09;5023176;27;98475;-85
2023/04/17 10:25:25;;;;;;;29.80;26.95;;;;;;;20.24;42.68;100748.66;5031870;27;96860;-85
2023/04/17 10:27:52;;;;;;;29.63;27.07;;;;;;;20.17;42.80;100752.69;4991288;28;96877;-87
2023/04/17 10:30:21;;;;;;;30.25;27.45;;;;;;;20.21;42.64;100762.19;5011774;28;101562;-86
2023/04/17 10:33:18;;;;;;;30.33;27.33;;;;;;;20.14;43.04;100760.91;5006242;28;98327;-87
2023/04/17 10:35:44;;;;;;;29.88;26.88;;;;;;;19.94;43.30;100729.41;5010828;28;96989;-85
2023/04/17 10:38:10;;;;;;;29.88;26.95;;;;;;;19.96;43.24;100730.19;5014576;28;97343;-85
2023/04/17 10:40:37;;;;;;;30.90;28.02;;;;;;;19.94;43.25;100738.25;4998601;28;101159;-85
2023/04/17 10:43:25;;;;;;;28.20;25.60;;;;;;;19.95;43.27;100745.28;5048415;27;101268;-84
2023/04/17 10:46:02;;;;;;;28.38;25.38;;;;;;;20.01;44.05;100746.69;5030632;28;97071;-82
2023/04/17 10:48:37;;;;;;;31.45;28.52;;;;;;;20.24;43.18;100753.13;4994310;28;97123;-83
2023/04/17 10:51:31;;;;;;;29.20;26.70;;;;;;;19.95;43.67;100749.75;5028548;27;101297;-83
2023/04/17 10:54:00;;;;;;;26.65;24.35;;;;;;;19.96;43.96;100759.47;5028974;28;99439;-80
2023/04/17 10:56:39;;;;;;;26.35;23.85;;;;;;;19.95;43.46;100755.94;5017908;27;96776;-80
2023/04/17 10:59:06;;;;;;;26.88;24.38;;;;;;;19.89;43.34;100759.00;5046682;27;97194;-79
2023/04/17 11:01:56;;;;;;;27.83;25.27;;;;;;;19.78;42.83;100748.19;5010219;28;102003;-78
2023/04/17 11:04:29;;;;;;;26.17;23.85;;;;;;;19.70;43.11;100747.88;5030237;28;100040;-82
2023/04/17 11:06:55;;;;;;;25.45;23.23;;;;;;;19.50;43.00;100736.66;5012512;28;97301;-81
2023/04/17 11:09:22;;;;;;;27.63;25.20;;;;;;;19.52;43.40;100752.53;5010366;28;97211;-81